Time;durP1;ratioP1;P1;durP2;ratioP2;P2;SDS_P1;SDS_P2;PMS_P1;PMS_P2;Temp;Humidity;BMP_temperature;BMP_pressure;BME280_temperature;BME280_humidity;BME280_pressure;Samples;Min_cycle;Max_cycle;Signal;HPM_P1;HPM_P2
2023/03/11 00:01:24;;;;;;;;;;;17.20;61.70;;;;;;5038619;28;1088;-69
2023/03/11 00:03:49;;;;;;;;;;;17.20;61.70;;;;;;5038419;28;1278;-69
2023/03/11 00:06:15;;;;;;;;;;;17.20;61.70;;;;;;5038560;28;889;-69
2023/03/11 00:08:40;;;;;;;;;;;17.20;61.70;;;;;;5037438;28;1951;-69
2023/03/11 00:11:06;;;;;;;;;;;17.20;61.70;;;;;;5035847;28;871;-69
2023/03/11 00:13:31;;;;;;;;;;;17.30;61.80;;;;;;5037706;28;1282;-69
2023/03/11 00:15:58;;;;;;;;;;;17.20;61.70;;;;;;5039518;28;821;-69
2023/03/11 00:18:25;;;;;;;;;;;17.20;61.70;;;;;;5038027;28;868;-69
2023/03/11 00:20:51;;;;;;;;;;;17.20;61.70;;;;;;5038319;28;1430;-69
2023/03/11 00:23:16;;;;;;;;;;;17.20;61.70;;;;;;5039877;28;1276;-69
2023/03/11 00:25:42;;;;;;;;;;;17.20;61.70;;;;;;5036748;28;868;-69
2023/03/11 00:28:09;;;;;;;;;;;17.30;61.80;;;;;;5040197;28;1051;-69
2023/03/11 00:30:35;;;;;;;;;;;17.20;61.70;;;;;;5038147;28;1898;-69
2023/03/11 00:33:00;;;;;;;;;;;17.20;61.70;;;;;;5039087;28;1256;-69
2023/03/11 00:35:26;;;;;;;;;;;17.30;61.80;;;;;;5040323;28;895;-69
2023/03/11 00:37:53;;;;;;;;;;;17.20;61.70;;;;;;5039216;28;1397;-70
2023/03/11 00:40:18;;;;;;;;;;;17.20;61.70;;;;;;5036417;28;1101;-70
2023/03/11 00:42:44;;;;;;;;;;;17.20;61.70;;;;;;5038402;28;1311;-69
2023/03/11 00:45:10;;;;;;;;;;;17.20;61.70;;;;;;5037390;28;915;-70
2023/03/11 00:47:35;;;;;;;;;;;17.20;61.80;;;;;;5048051;28;881;-69
2023/03/11 00:50:01;;;;;;;;;;;17.20;61.70;;;;;;5039970;28;1930;-70
2023/03/11 00:52:27;;;;;;;;;;;17.30;61.80;;;;;;5038718;28;1370;-69
2023/03/11 00:54:53;;;;;;;;;;;17.20;61.80;;;;;;5036941;28;826;-70
2023/03/11 00:57:18;;;;;;;;;;;17.20;61.80;;;;;;5039287;28;974;-69
2023/03/11 00:59:44;;;;;;;;;;;17.20;61.80;;;;;;5041226;28;811;-68
2023/03/11 01:02:09;;;;;;;;;;;17.20;61.80;;;;;;5042462;28;1367;-68
2023/03/11 01:04:35;;;;;;;;;;;17.20;61.80;;;;;;5036822;28;900;-68
2023/03/11 01:07:00;;;;;;;;;;;17.30;61.90;;;;;;5040720;28;1061;-68
2023/03/11 01:09:26;;;;;;;;;;;17.30;61.90;;;;;;5043238;28;1906;-68
2023/03/11 01:11:53;;;;;;;;;;;17.20;61.80;;;;;;5038671;28;1360;-68
2023/03/11 01:14:18;;;;;;;;;;;17.20;61.80;;;;;;5039973;28;930;-68
2023/03/11 01:16:45;;;;;;;;;;;17.20;61.80;;;;;;5037614;28;994;-68
2023/03/11 01:19:10;;;;;;;;;;;17.20;61.80;;;;;;5041506;28;806;-68
2023/03/11 01:21:36;;;;;;;;;;;17.20;61.80;;;;;;5074712;28;1308;-68
2023/03/11 01:24:01;;;;;;;;;;;17.20;61.80;;;;;;5040046;28;1153;-68
2023/03/11 01:26:27;;;;;;;;;;;17.20;61.80;;;;;;5040924;28;1002;-71
2023/03/11 01:28:52;;;;;;;;;;;17.20;61.80;;;;;;5037096;28;1947;-70
2023/03/11 01:31:18;;;;;;;;;;;17.20;61.80;;;;;;5038982;28;847;-70
2023/03/11 01:33:43;;;;;;;;;;;17.20;61.90;;;;;;5041764;28;1173;-70
2023/03/11 01:36:09;;;;;;;;;;;17.20;61.80;;;;;;5045681;28;880;-70
2023/03/11 01:38:34;;;;;;;;;;;17.20;61.80;;;;;;5038582;28;1342;-69
2023/03/11 01:41:00;;;;;;;;;;;17.20;61.80;;;;;;5040086;28;861;-70
2023/03/11 01:43:39;;;;;;;;;;;17.20;61.80;;;;;;5039340;28;1329;-70
2023/03/11 01:46:04;;;;;;;;;;;17.20;61.90;;;;;;5069118;28;1189;-69
2023/03/11 01:48:30;;;;;;;;;;;17.20;61.90;;;;;;5038247;28;892;-69
2023/03/11 01:50:55;;;;;;;;;;;17.20;61.90;;;;;;5039355;28;1910;-69
2023/03/11 01:53:21;;;;;;;;;;;17.20;61.90;;;;;;5041175;28;1275;-69
2023/03/11 01:55:47;;;;;;;;;;;17.20;61.90;;;;;;5042338;28;856;-69
2023/03/11 01:58:16;;;;;;;;;;;17.20;61.90;;;;;;5044877;28;1006;-69
2023/03/11 02:00:42;;;;;;;;;;;17.20;61.90;;;;;;5042331;28;916;-69
2023/03/11 02:03:13;;;;;;;;;;;17.20;61.90;;;;;;5042084;28;1259;-69
2023/03/11 02:05:39;;;;;;;;;;;17.20;61.90;;;;;;5042212;28;1049;-69
2023/03/11 02:08:05;;;;;;;;;;;17.20;61.90;;;;;;5043411;28;871;-69
2023/03/11 02:10:30;;;;;;;;;;;17.20;61.90;;;;;;5041164;28;1902;-69
2023/03/11 02:12:56;;;;;;;;;;;17.20;62.00;;;;;;5039554;28;1287;-70
2023/03/11 02:15:21;;;;;;;;;;;17.20;62.00;;;;;;5042715;28;895;-70
2023/03/11 02:17:46;;;;;;;;;;;17.20;61.90;;;;;;5040252;28;1402;-69
2023/03/11 02:20:15;;;;;;;;;;;17.20;62.00;;;;;;5041846;28;1065;-68
2023/03/11 02:22:40;;;;;;;;;;;17.20;62.00;;;;;;5044304;28;1358;-67
2023/03/11 02:25:17;;;;;;;;;;;17.20;62.00;;;;;;5041584;28;881;-69
2023/03/11 02:27:44;;;;;;;;;;;17.20;62.00;;;;;;5044116;28;824;-68
2023/03/11 02:30:10;;;;;;;;;;;17.20;62.00;;;;;;5076023;28;1909;-69
2023/03/11 02:32:36;;;;;;;;;;;17.20;62.00;;;;;;5041964;28;1300;-68
2023/03/11 02:35:02;;;;;;;;;;;17.20;62.00;;;;;;5071407;28;900;-68
2023/03/11 02:37:27;;;;;;;;;;;17.20;62.00;;;;;;5027408;28;1684;-68
2023/03/11 02:39:53;;;;;;;;;;;17.20;62.00;;;;;;5075378;28;867;-68
2023/03/11 02:42:23;;;;;;;;;;;17.20;62.00;;;;;;5040945;28;1353;-68
2023/03/11 02:44:52;;;;;;;;;;;17.20;62.00;;;;;;5073527;28;848;-68
2023/03/11 02:47:18;;;;;;;;;;;17.20;62.00;;;;;;5041084;28;1011;-69
2023/03/11 02:49:43;;;;;;;;;;;17.20;62.00;;;;;;5025624;28;1957;-68
2023/03/11 02:52:08;;;;;;;;;;;17.20;62.00;;;;;;5041637;28;1267;-69
2023/03/11 02:54:34;;;;;;;;;;;17.20;62.80;;;;;;5041712;28;888;-69
2023/03/11 02:56:59;;;;;;;;;;;17.10;62.00;;;;;;5037792;28;966;-68
2023/03/11 02:59:25;;;;;;;;;;;17.20;62.00;;;;;;5043164;28;872;-69
2023/03/11 03:01:50;;;;;;;;;;;17.20;62.00;;;;;;5038952;28;1363;-70
2023/03/11 03:04:16;;;;;;;;;;;17.10;62.00;;;;;;5038949;28;924;-69
2023/03/11 03:06:41;;;;;;;;;;;17.10;62.00;;;;;;5040281;28;1089;-69
2023/03/11 03:09:07;;;;;;;;;;;17.20;62.10;;;;;;5043145;28;1930;-68
2023/03/11 03:11:32;;;;;;;;;;;17.20;62.00;;;;;;5044668;28;1258;-68
2023/03/11 03:13:58;;;;;;;;;;;17.20;62.00;;;;;;5035541;28;1377;-68
2023/03/11 03:16:24;;;;;;;;;;;17.20;62.00;;;;;;5048708;28;829;-69
2023/03/11 03:18:50;;;;;;;;;;;17.20;62.00;;;;;;5041334;28;844;-70
2023/03/11 03:21:15;;;;;;;;;;;17.20;62.00;;;;;;5043212;28;1197;-70
2023/03/11 03:23:41;;;;;;;;;;;17.20;62.00;;;;;;5037212;28;1362;-70
2023/03/11 03:26:06;;;;;;;;;;;17.20;62.00;;;;;;5036653;28;882;-69
2023/03/11 03:28:32;;;;;;;;;;;17.20;62.00;;;;;;5041944;28;820;-68
2023/03/11 03:31:04;;;;;;;;;;;17.20;62.00;;;;;;5038879;28;1886;-69
2023/03/11 03:33:30;;;;;;;;;;;17.20;62.80;;;;;;5040549;28;1263;-69
2023/03/11 03:35:55;;;;;;;;;;;17.10;62.00;;;;;;5039670;28;785;-69
2023/03/11 03:38:20;;;;;;;;;;;17.20;62.00;;;;;;5044406;28;1422;-69
2023/03/11 03:40:46;;;;;;;;;;;17.20;62.00;;;;;;5041717;28;915;-69
2023/03/11 03:43:12;;;;;;;;;;;17.10;61.90;;;;;;5070920;28;1259;-69
2023/03/11 03:45:37;;;;;;;;;;;17.10;62.00;;;;;;5038334;28;937;-69
2023/03/11 03:48:03;;;;;;;;;;;17.20;62.10;;;;;;5041935;28;1046;-69
2023/03/11 03:50:28;;;;;;;;;;;17.20;62.00;;;;;;5042197;28;1934;-69
2023/03/11 03:52:54;;;;;;;;;;;17.20;62.10;;;;;;5042079;28;1276;-70
2023/03/11 03:55:19;;;;;;;;;;;17.20;62.10;;;;;;5039623;28;1057;-69
2023/03/11 03:57:45;;;;;;;;;;;17.20;62.10;;;;;;5042845;28;1412;-69
2023/03/11 04:00:10;;;;;;;;;;;17.20;62.10;;;;;;5039541;28;1069;-69
2023/03/11 04:02:36;;;;;;;;;;;17.20;62.10;;;;;;5039279;28;1278;-69
2023/03/11 04:05:01;;;;;;;;;;;17.20;62.10;;;;;;5039824;28;892;-70
2023/03/11 04:07:27;;;;;;;;;;;17.20;62.10;;;;;;5038712;28;835;-69
2023/03/11 04:09:52;;;;;;;;;;;17.20;62.10;;;;;;5037814;28;1906;-69
2023/03/11 04:12:18;;;;;;;;;;;17.20;62.10;;;;;;5041104;28;1259;-69
2023/03/11 04:14:43;;;;;;;;;;;17.10;62.00;;;;;;5037060;28;902;-70
2023/03/11 04:17:10;;;;;;;;;;;17.20;62.10;;;;;;5036312;28;899;-69
2023/03/11 04:19:35;;;;;;;;;;;17.10;62.00;;;;;;5040522;28;828;-69
2023/03/11 04:22:01;;;;;;;;;;;17.10;62.00;;;;;;5040524;28;1291;-70
2023/03/11 04:24:26;;;;;;;;;;;17.20;62.10;;;;;;5037650;28;798;-69
2023/03/11 04:26:52;;;;;;;;;;;17.10;62.00;;;;;;5041906;28;895;-69
2023/03/11 04:29:17;;;;;;;;;;;17.20;62.10;;;;;;5041932;28;1898;-69
2023/03/11 04:31:43;;;;;;;;;;;17.10;62.80;;;;;;5040972;28;923;-69
2023/03/11 04:34:08;;;;;;;;;;;17.20;62.10;;;;;;5036002;28;854;-69
2023/03/11 04:36:34;;;;;;;;;;;17.10;62.10;;;;;;5038584;28;978;-69
2023/03/11 04:38:59;;;;;;;;;;;17.20;62.10;;;;;;5039055;28;833;-69
2023/03/11 04:41:25;;;;;;;;;;;17.10;62.10;;;;;;5041906;28;843;-68
2023/03/11 04:43:50;;;;;;;;;;;17.10;62.10;;;;;;5041284;28;1291;-69
2023/03/11 04:46:15;;;;;;;;;;;17.20;62.10;;;;;;5037188;28;942;-70
2023/03/11 04:48:41;;;;;;;;;;;17.10;62.10;;;;;;5040055;28;759;-69
2023/03/11 04:51:06;;;;;;;;;;;17.10;62.10;;;;;;5040163;28;1911;-69
2023/03/11 04:53:32;;;;;;;;;;;17.20;62.10;;;;;;5035105;28;1294;-69
2023/03/11 04:55:57;;;;;;;;;;;17.10;62.10;;;;;;5035257;28;1210;-69
2023/03/11 04:58:23;;;;;;;;;;;17.20;62.10;;;;;;5042135;28;883;-68
2023/03/11 05:00:48;;;;;;;;;;;17.10;62.10;;;;;;5037565;28;929;-68
2023/03/11 05:03:14;;;;;;;;;;;17.10;62.10;;;;;;5039082;28;1257;-68
2023/03/11 05:05:39;;;;;;;;;;;17.10;62.10;;;;;;5038860;28;856;-68
2023/03/11 05:08:05;;;;;;;;;;;17.10;62.10;;;;;;5035478;28;944;-69
2023/03/11 05:10:30;;;;;;;;;;;17.10;62.10;;;;;;5036295;28;1954;-69
2023/03/11 05:12:56;;;;;;;;;;;17.20;62.10;;;;;;5070122;28;1297;-69
2023/03/11 05:15:21;;;;;;;;;;;17.20;62.00;;;;;;5040900;28;909;-68
2023/03/11 05:17:47;;;;;;;;;;;17.20;62.00;;;;;;5039439;28;772;-68
2023/03/11 05:20:12;;;;;;;;;;;17.20;61.80;;;;;;5038955;28;1089;-69
2023/03/11 05:22:38;;;;;;;;;;;17.20;61.70;;;;;;5037910;28;1276;-68
2023/03/11 05:25:03;;;;;;;;;;;17.30;61.60;;;;;;5039519;28;852;-68
2023/03/11 05:27:29;;;;;;;;;;;17.30;61.50;;;;;;5036934;28;828;-69
2023/03/11 05:29:54;;;;;;;;;;;17.30;61.30;;;;;;5037524;28;1930;-68
2023/03/11 05:32:20;;;;;;;;;;;17.40;61.30;;;;;;5038641;28;1263;-68
2023/03/11 05:34:46;;;;;;;;;;;17.40;61.10;;;;;;5037581;28;808;-69
2023/03/11 05:37:11;;;;;;;;;;;17.50;61.10;;;;;;5035480;28;1386;-69
2023/03/11 05:39:36;;;;;;;;;;;17.50;61.00;;;;;;5039465;28;982;-68
2023/03/11 05:42:03;;;;;;;;;;;17.50;60.90;;;;;;5039874;28;1296;-69
2023/03/11 05:44:28;;;;;;;;;;;17.50;60.80;;;;;;5038682;28;860;-69
2023/03/11 05:46:54;;;;;;;;;;;17.50;60.70;;;;;;5036418;28;863;-68
2023/03/11 05:49:20;;;;;;;;;;;17.60;60.70;;;;;;5037723;28;1906;-68
2023/03/11 05:51:46;;;;;;;;;;;17.60;60.60;;;;;;5036616;28;1267;-69
2023/03/11 05:54:13;;;;;;;;;;;17.60;60.60;;;;;;5072641;28;1038;-69
2023/03/11 05:56:40;;;;;;;;;;;17.60;60.50;;;;;;5036590;28;872;-69
2023/03/11 05:59:05;;;;;;;;;;;17.60;60.50;;;;;;5034951;28;880;-67
2023/03/11 06:01:31;;;;;;;;;;;17.70;60.40;;;;;;5037765;28;911;-69
2023/03/11 06:03:56;;;;;;;;;;;17.70;60.40;;;;;;5036883;28;1366;-68
2023/03/11 06:06:22;;;;;;;;;;;17.70;60.30;;;;;;5039694;28;907;-69
2023/03/11 06:08:49;;;;;;;;;;;17.70;60.30;;;;;;5037312;28;856;-69
2023/03/11 06:11:14;;;;;;;;;;;17.60;60.20;;;;;;5071408;28;1886;-69
2023/03/11 06:13:40;;;;;;;;;;;17.70;60.20;;;;;;5037973;28;1381;-68
2023/03/11 06:16:05;;;;;;;;;;;17.70;60.20;;;;;;5041359;28;1298;-69
2023/03/11 06:18:31;;;;;;;;;;;17.70;60.10;;;;;;5035663;28;937;-68
2023/03/11 06:20:57;;;;;;;;;;;17.70;60.10;;;;;;5038506;28;1533;-68
2023/03/11 06:23:22;;;;;;;;;;;17.70;60.10;;;;;;5037398;28;1286;-69
2023/03/11 06:26:14;;;;;;;;;;;17.70;60.10;;;;;;5034665;28;1320;-69
2023/03/11 06:28:40;;;;;;;;;;;17.70;60.10;;;;;;5037649;28;1292;-68
2023/03/11 06:31:07;;;;;;;;;;;17.70;60.00;;;;;;5035758;28;1967;-68
2023/03/11 06:33:32;;;;;;;;;;;17.70;60.00;;;;;;5037766;28;1403;-68
2023/03/11 06:35:58;;;;;;;;;;;17.80;60.10;;;;;;5040769;28;1054;-69
2023/03/11 06:38:23;;;;;;;;;;;17.70;60.00;;;;;;5041508;28;1382;-69
2023/03/11 06:40:49;;;;;;;;;;;17.70;60.00;;;;;;5071543;28;808;-69
2023/03/11 06:43:14;;;;;;;;;;;17.70;60.00;;;;;;5050728;28;1385;-69
2023/03/11 06:45:40;;;;;;;;;;;17.70;60.00;;;;;;5038165;28;840;-68
2023/03/11 06:48:05;;;;;;;;;;;17.70;60.00;;;;;;5040571;28;1002;-69
2023/03/11 06:50:31;;;;;;;;;;;17.70;60.00;;;;;;5040000;28;1913;-70
2023/03/11 06:52:57;;;;;;;;;;;17.80;60.10;;;;;;5040262;28;1279;-69
2023/03/11 06:55:22;;;;;;;;;;;17.70;60.00;;;;;;5042988;28;852;-69
2023/03/11 06:57:48;;;;;;;;;;;17.70;60.80;;;;;;5039644;28;816;-69
2023/03/11 07:00:13;;;;;;;;;;;17.70;60.00;;;;;;5043675;28;915;-69
2023/03/11 07:02:39;;;;;;;;;;;17.70;60.10;;;;;;5039025;28;1359;-69
2023/03/11 07:05:04;;;;;;;;;;;17.70;60.10;;;;;;5040713;28;999;-69
2023/03/11 07:07:30;;;;;;;;;;;17.70;60.10;;;;;;5043280;28;812;-69
2023/03/11 07:09:56;;;;;;;;;;;17.70;60.10;;;;;;5042255;28;2031;-69
2023/03/11 07:12:24;;;;;;;;;;;17.70;60.10;;;;;;5039251;28;1364;-68
2023/03/11 07:14:55;;;;;;;;;;;17.70;60.20;;;;;;5039812;28;828;-68
2023/03/11 07:17:21;;;;;;;;;;;17.70;60.20;;;;;;5037688;28;1436;-69
2023/03/11 07:19:46;;;;;;;;;;;17.70;60.20;;;;;;5039125;28;1930;-70
2023/03/11 07:22:12;;;;;;;;;;;17.60;60.20;;;;;;5044873;28;1339;-68
2023/03/11 07:24:37;;;;;;;;;;;17.70;60.30;;;;;;5040633;28;1314;-68
2023/03/11 07:27:03;;;;;;;;;;;17.70;60.30;;;;;;5041649;28;868;-68
2023/03/11 07:29:28;;;;;;;;;;;17.70;60.30;;;;;;5041698;28;1948;-69
2023/03/11 07:31:54;;;;;;;;;;;17.70;60.30;;;;;;5048204;28;1289;-69
2023/03/11 07:34:19;;;;;;;;;;;17.60;60.30;;;;;;5038168;28;908;-70
2023/03/11 07:36:45;;;;;;;;;;;17.60;60.40;;;;;;5040931;28;1367;-69
2023/03/11 07:39:14;;;;;;;;;;;17.60;60.40;;;;;;5031788;28;4716;-69
2023/03/11 07:41:39;;;;;;;;;;;17.60;60.40;;;;;;5040357;28;4656;-71
2023/03/11 07:44:05;;;;;;;;;;;17.60;60.50;;;;;;5040706;28;1256;-71
2023/03/11 07:46:31;;;;;;;;;;;17.60;60.50;;;;;;5040241;28;1007;-69
2023/03/11 07:48:56;;;;;;;;;;;17.60;60.50;;;;;;5071875;28;1973;-70
2023/03/11 07:51:22;;;;;;;;;;;17.60;60.60;;;;;;5038518;28;906;-69
2023/03/11 07:53:47;;;;;;;;;;;17.60;60.60;;;;;;5041219;28;1283;-69
2023/03/11 07:56:13;;;;;;;;;;;17.60;60.60;;;;;;5038298;28;2114;-71
2023/03/11 07:58:38;;;;;;;;;;;17.60;60.60;;;;;;5043163;28;1249;-71
2023/03/11 08:01:08;;;;;;;;;;;17.60;60.60;;;;;;5041411;28;1244;-69
2023/03/11 08:03:34;;;;;;;;;;;17.60;60.70;;;;;;5044017;28;2150;-70
2023/03/11 08:05:59;;;;;;;;;;;17.50;60.60;;;;;;5039426;28;1095;-71
2023/03/11 08:08:25;;;;;;;;;;;17.60;60.70;;;;;;5041488;28;911;-71
2023/03/11 08:10:50;;;;;;;;;;;17.50;60.70;;;;;;5041797;28;1906;-70
2023/03/11 08:13:16;;;;;;;;;;;17.50;60.70;;;;;;5041991;28;1276;-70
2023/03/11 08:15:41;;;;;;;;;;;17.50;60.70;;;;;;5070174;28;871;-71
2023/03/11 08:18:07;;;;;;;;;;;17.50;60.70;;;;;;5041105;28;844;-70
2023/03/11 08:20:32;;;;;;;;;;;17.50;60.80;;;;;;5039207;28;1261;-70
2023/03/11 08:22:58;;;;;;;;;;;17.50;60.80;;;;;;5039555;28;1275;-70
2023/03/11 08:25:23;;;;;;;;;;;17.50;60.80;;;;;;5035940;28;963;-71
2023/03/11 08:27:49;;;;;;;;;;;17.50;60.90;;;;;;5037034;28;817;-69
2023/03/11 08:30:14;;;;;;;;;;;17.50;60.80;;;;;;5038989;28;1898;-69
2023/03/11 08:32:40;;;;;;;;;;;17.50;60.90;;;;;;5037297;28;1257;-70
2023/03/11 08:35:05;;;;;;;;;;;17.50;60.90;;;;;;5043509;28;1163;-70
2023/03/11 08:37:31;;;;;;;;;;;17.50;60.90;;;;;;5040903;28;1422;-70
2023/03/11 08:39:56;;;;;;;;;;;17.50;60.90;;;;;;5038728;28;1259;-70
2023/03/11 08:42:22;;;;;;;;;;;17.50;60.90;;;;;;5039342;28;1255;-70
2023/03/11 08:44:47;;;;;;;;;;;17.50;60.90;;;;;;5039994;28;978;-70
2023/03/11 08:47:13;;;;;;;;;;;17.50;61.00;;;;;;5039862;28;1019;-70
2023/03/11 08:49:38;;;;;;;;;;;17.50;60.90;;;;;;5041705;28;1903;-71
2023/03/11 08:52:04;;;;;;;;;;;17.50;61.00;;;;;;5043514;28;1272;-70
2023/03/11 08:54:29;;;;;;;;;;;17.50;61.00;;;;;;5039157;28;862;-71
2023/03/11 08:56:55;;;;;;;;;;;17.50;61.00;;;;;;5036285;28;1435;-70
2023/03/11 08:59:20;;;;;;;;;;;17.50;61.00;;;;;;5069000;28;946;-71
2023/03/11 09:01:46;;;;;;;;;;;17.50;61.70;;;;;;5033852;28;1271;-71
2023/03/11 09:04:11;;;;;;;;;;;17.50;61.00;;;;;;5040235;28;761;-71
2023/03/11 09:06:40;;;;;;;;;;;17.50;61.00;;;;;;5040239;28;863;-70
2023/03/11 09:09:06;;;;;;;;;;;17.50;60.90;;;;;;5036712;28;1902;-70
2023/03/11 09:11:31;;;;;;;;;;;17.50;60.90;;;;;;5041722;28;825;-70
2023/03/11 09:13:57;;;;;;;;;;;17.50;60.90;;;;;;5039959;28;1261;-70
2023/03/11 09:16:22;;;;;;;;;;;17.50;60.80;;;;;;5048310;28;817;-70
2023/03/11 09:18:48;;;;;;;;;;;17.50;60.80;;;;;;5039112;28;860;-70
2023/03/11 09:21:13;;;;;;;;;;;17.50;60.80;;;;;;5040631;28;1020;-69
2023/03/11 09:23:39;;;;;;;;;;;17.50;60.70;;;;;;5038680;28;1471;-69
2023/03/11 09:26:04;;;;;;;;;;;17.60;60.80;;;;;;5076967;28;1053;-69
2023/03/11 09:28:30;;;;;;;;;;;17.50;60.60;;;;;;5038288;28;817;-69
2023/03/11 09:30:55;;;;;;;;;;;17.60;60.70;;;;;;5043115;28;1903;-69
2023/03/11 09:33:21;;;;;;;;;;;17.60;60.60;;;;;;5035526;28;1349;-69
2023/03/11 09:35:47;;;;;;;;;;;17.60;60.60;;;;;;5045285;28;879;-69
2023/03/11 09:38:12;;;;;;;;;;;17.60;60.60;;;;;;5045254;28;1367;-69
2023/03/11 09:40:43;;;;;;;;;;;17.60;60.50;;;;;;5043140;28;943;-69
2023/03/11 09:43:18;;;;;;;;;;;17.60;60.50;;;;;;5038027;28;1385;-69
2023/03/11 09:45:45;;;;;;;;;;;17.60;60.50;;;;;;5037121;28;975;-69
2023/03/11 09:48:20;;;;;;;;;;;17.60;60.40;;;;;;5071794;28;1058;-69
2023/03/11 09:50:50;;;;;;;;;;;17.60;60.40;;;;;;5038193;28;1910;-69
2023/03/11 09:53:17;;;;;;;;;;;17.60;60.40;;;;;;5072159;28;1210;-69
2023/03/11 09:55:52;;;;;;;;;;;17.60;60.40;;;;;;5038526;28;915;-69
2023/03/11 09:58:20;;;;;;;;;;;17.60;60.40;;;;;;5036313;28;975;-69
2023/03/11 10:00:46;;;;;;;;;;;17.60;60.40;;;;;;5037996;28;859;-69
2023/03/11 10:03:27;;;;;;;;;;;17.60;60.30;;;;;;5037130;28;1334;-69
2023/03/11 10:05:53;;;;;;;;;;;17.70;60.40;;;;;;5034994;28;1191;-69
2023/03/11 10:08:23;;;;;;;;;;;17.60;60.30;;;;;;5047908;28;840;-69
2023/03/11 10:10:52;;;;;;;;;;;17.70;60.30;;;;;;5072932;28;1971;-69
2023/03/11 10:13:34;;;;;;;;;;;17.60;60.30;;;;;;5039004;28;1263;-69
2023/03/11 10:16:00;;;;;;;;;;;17.70;60.30;;;;;;5039710;28;840;-69
2023/03/11 10:18:36;;;;;;;;;;;17.70;60.30;;;;;;5041133;28;836;-69
2023/03/11 10:21:05;;;;;;;;;;;17.70;60.30;;;;;;5076737;28;1291;-70
2023/03/11 10:23:30;;;;;;;;;;;17.60;60.20;;;;;;5042488;28;1223;-70
2023/03/11 10:25:59;;;;;;;;;;;17.70;60.30;;;;;;5047474;28;928;-70
2023/03/11 10:28:30;;;;;;;;;;;17.70;60.30;;;;;;5039837;28;849;-70
2023/03/11 10:31:04;;;;;;;;;;;17.70;60.30;;;;;;5074294;28;1894;-70
2023/03/11 10:33:37;;;;;;;;;;;17.70;60.20;;;;;;5041808;28;1259;-69
2023/03/11 10:36:03;;;;;;;;;;;17.70;60.30;;;;;;5071855;28;975;-70
2023/03/11 10:38:34;;;;;;;;;;;17.70;60.30;;;;;;5043268;28;1371;-69
2023/03/11 10:41:00;;;;;;;;;;;17.60;60.20;;;;;;5063047;28;1680;-69
2023/03/11 10:43:27;;;;;;;;;;;17.70;60.20;;;;;;5041367;28;1296;-70
2023/03/11 10:45:53;;;;;;;;;;;17.60;60.30;;;;;;5049707;28;891;-70
2023/03/11 10:48:18;;;;;;;;;;;17.60;60.20;;;;;;5043649;28;1014;-70
2023/03/11 10:50:44;;;;;;;;;;;17.70;60.30;;;;;;5075701;28;1902;-70
2023/03/11 10:53:12;;;;;;;;;;;17.60;60.20;;;;;;5042713;28;1329;-70
2023/03/11 10:55:44;;;;;;;;;;;17.70;60.30;;;;;;5073845;28;1337;-70
2023/03/11 10:58:11;;;;;;;;;;;17.70;60.30;;;;;;5039264;28;844;-70
2023/03/11 11:00:36;;;;;;;;;;;17.60;60.30;;;;;;5038387;28;962;-70
2023/03/11 11:03:03;;;;;;;;;;;17.70;60.30;;;;;;5041206;28;1255;-70
2023/03/11 11:05:31;;;;;;;;;;;17.60;60.20;;;;;;5044087;28;903;-70
2023/03/11 11:08:06;;;;;;;;;;;17.60;60.20;;;;;;5041043;28;824;-70
2023/03/11 11:10:31;;;;;;;;;;;17.60;60.20;;;;;;5043976;28;1906;-70
2023/03/11 11:13:12;;;;;;;;;;;17.60;60.20;;;;;;5038238;28;1264;-69
2023/03/11 11:16:00;;;;;;;;;;;17.70;60.30;;;;;;5040128;28;888;-70
2023/03/11 11:18:26;;;;;;;;;;;17.70;60.20;;;;;;5042311;28;1268;-70
2023/03/11 11:20:53;;;;;;;;;;;17.60;60.20;;;;;;5041237;28;1383;-70
2023/03/11 11:23:25;;;;;;;;;;;17.60;60.20;;;;;;5048982;28;1367;-69
2023/03/11 11:25:57;;;;;;;;;;;17.70;60.30;;;;;;5072321;28;820;-70
2023/03/11 11:28:23;;;;;;;;;;;17.70;60.30;;;;;;5037526;28;948;-70
2023/03/11 11:30:51;;;;;;;;;;;17.60;60.20;;;;;;5042354;28;1963;-70
2023/03/11 11:33:24;;;;;;;;;;;17.60;60.20;;;;;;5040381;28;1247;-69
2023/03/11 11:35:50;;;;;;;;;;;17.60;60.20;;;;;;5073804;28;846;-69
2023/03/11 11:38:16;;;;;;;;;;;17.70;60.30;;;;;;5041616;28;1045;-69
2023/03/11 11:40:41;;;;;;;;;;;17.70;60.30;;;;;;5074976;28;880;-69
2023/03/11 11:43:13;;;;;;;;;;;17.70;60.20;;;;;;5043561;28;1358;-69
2023/03/11 11:45:45;;;;;;;;;;;17.60;60.20;;;;;;5035907;28;1225;-70
2023/03/11 11:48:25;;;;;;;;;;;17.70;60.20;;;;;;5071391;28;823;-70
2023/03/11 11:50:51;;;;;;;;;;;17.60;60.20;;;;;;5037641;28;1973;-70
2023/03/11 11:53:23;;;;;;;;;;;17.70;60.30;;;;;;5037570;28;1255;-69
2023/03/11 11:55:49;;;;;;;;;;;17.70;60.20;;;;;;5040059;28;876;-69
2023/03/11 11:58:14;;;;;;;;;;;17.70;60.30;;;;;;5038783;28;868;-69
2023/03/11 12:00:49;;;;;;;;;;;17.70;60.20;;;;;;5036153;28;851;-69
2023/03/11 12:03:33;;;;;;;;;;;17.70;60.30;;;;;;5038565;28;1357;-69
2023/03/11 12:06:00;;;;;;;;;;;17.70;60.30;;;;;;5039381;28;899;-69
2023/03/11 12:08:34;;;;;;;;;;;17.70;60.30;;;;;;5041329;28;865;-69
2023/03/11 12:11:06;;;;;;;;;;;17.60;60.20;;;;;;5037948;28;1910;-69
2023/03/11 12:13:41;;;;;;;;;;;17.70;60.30;;;;;;5057385;28;1276;-69
2023/03/11 12:16:12;;;;;;;;;;;17.70;60.30;;;;;;5047130;28;1170;-69
2023/03/11 12:18:38;;;;;;;;;;;17.70;60.30;;;;;;5043689;28;835;-69
2023/03/11 12:21:26;;;;;;;;;;;17.60;60.30;;;;;;5039746;28;2015;-69
2023/03/11 12:24:00;;;;;;;;;;;17.60;60.30;;;;;;5073654;28;1416;-69
2023/03/11 12:26:26;;;;;;;;;;;17.70;60.30;;;;;;5040072;28;1047;-70
2023/03/11 12:28:54;;;;;;;;;;;17.70;60.30;;;;;;5047442;28;1333;-70
2023/03/11 12:31:19;;;;;;;;;;;17.60;60.30;;;;;;5037294;28;1902;-69
2023/03/11 12:33:50;;;;;;;;;;;17.70;60.30;;;;;;5039319;28;1259;-69
2023/03/11 12:36:22;;;;;;;;;;;17.60;60.30;;;;;;5040665;28;850;-69
2023/03/11 12:38:47;;;;;;;;;;;17.70;60.30;;;;;;5042768;28;1604;-69
2023/03/11 12:41:13;;;;;;;;;;;17.70;60.30;;;;;;5071834;28;875;-69
2023/03/11 12:43:41;;;;;;;;;;;17.60;60.30;;;;;;5041599;28;1349;-70
2023/03/11 12:46:10;;;;;;;;;;;17.60;60.30;;;;;;5039249;28;987;-69
2023/03/11 12:48:43;;;;;;;;;;;17.70;61.00;;;;;;5037174;28;1248;-70
2023/03/11 12:51:27;;;;;;;;;;;17.70;60.20;;;;;;5069854;28;1906;-70
2023/03/11 12:53:53;;;;;;;;;;;17.70;60.20;;;;;;5038879;28;1259;-69
2023/03/11 12:56:25;;;;;;;;;;;17.70;60.20;;;;;;5038302;28;1015;-70
2023/03/11 12:58:53;;;;;;;;;;;17.70;60.20;;;;;;5041106;28;839;-70
2023/03/11 13:01:39;;;;;;;;;;;17.70;60.20;;;;;;5042838;28;883;-69
2023/03/11 13:04:10;;;;;;;;;;;17.70;60.20;;;;;;5036092;28;2006;-69
2023/03/11 13:06:39;;;;;;;;;;;17.70;60.10;;;;;;5071928;28;1450;-69
2023/03/11 13:09:12;;;;;;;;;;;17.70;60.10;;;;;;5073203;28;1494;-70
2023/03/11 13:11:40;;;;;;;;;;;17.70;60.10;;;;;;5037192;28;882;-70
2023/03/11 13:14:26;;;;;;;;;;;17.70;60.90;;;;;;5072229;28;1208;-69
2023/03/11 13:16:51;;;;;;;;;;;17.70;60.20;;;;;;5036428;28;824;-69
2023/03/11 13:19:26;;;;;;;;;;;17.70;60.20;;;;;;5042283;28;855;-69
2023/03/11 13:21:51;;;;;;;;;;;17.70;60.20;;;;;;5040477;28;1405;-70
2023/03/11 13:24:17;;;;;;;;;;;17.70;60.20;;;;;;5038297;28;843;-69
2023/03/11 13:26:46;;;;;;;;;;;17.60;60.30;;;;;;5036441;28;848;-70
2023/03/11 13:29:16;;;;;;;;;;;17.60;60.30;;;;;;5040735;28;1898;-69
2023/03/11 13:31:45;;;;;;;;;;;17.60;60.30;;;;;;5074249;28;1009;-69
2023/03/11 13:34:18;;;;;;;;;;;17.60;60.30;;;;;;5038660;28;824;-69
2023/03/11 13:36:54;;;;;;;;;;;17.70;60.30;;;;;;5069698;28;1426;-68
2023/03/11 13:39:22;;;;;;;;;;;17.70;60.30;;;;;;5034263;28;844;-68
2023/03/11 13:41:48;;;;;;;;;;;17.70;60.30;;;;;;5041317;28;1237;-69
2023/03/11 13:44:19;;;;;;;;;;;17.70;60.30;;;;;;5036224;28;856;-68
2023/03/11 13:46:48;;;;;;;;;;;17.60;60.20;;;;;;5035499;28;947;-68
2023/03/11 13:49:32;;;;;;;;;;;17.70;60.20;;;;;;5037813;28;1934;-68
2023/03/11 13:51:58;;;;;;;;;;;17.70;60.20;;;;;;5038187;28;1267;-70
2023/03/11 13:54:43;;;;;;;;;;;17.70;60.20;;;;;;5041044;28;812;-70
2023/03/11 13:57:14;;;;;;;;;;;17.70;60.20;;;;;;5038919;28;2145;-70
2023/03/11 13:59:40;;;;;;;;;;;17.70;60.10;;;;;;5035247;28;1531;-69
2023/03/11 14:02:05;;;;;;;;;;;17.70;60.10;;;;;;5071924;28;1726;-69
2023/03/11 14:04:31;;;;;;;;;;;17.70;60.10;;;;;;5039571;28;975;-68
2023/03/11 14:06:57;;;;;;;;;;;17.70;60.10;;;;;;5037753;28;943;-70
2023/03/11 14:09:23;;;;;;;;;;;17.70;60.10;;;;;;5036704;28;1902;-69
2023/03/11 14:11:48;;;;;;;;;;;17.70;60.10;;;;;;5035602;28;1304;-69
2023/03/11 14:14:31;;;;;;;;;;;17.70;60.10;;;;;;5035271;28;892;-69
2023/03/11 14:16:57;;;;;;;;;;;17.70;60.00;;;;;;5067982;28;1436;-69
2023/03/11 14:19:23;;;;;;;;;;;17.70;60.10;;;;;;5037461;28;890;-68
2023/03/11 14:21:50;;;;;;;;;;;17.70;60.10;;;;;;5035212;28;1317;-68
2023/03/11 14:24:19;;;;;;;;;;;17.70;60.10;;;;;;5037129;28;838;-68
2023/03/11 14:26:44;;;;;;;;;;;17.70;60.10;;;;;;5037295;28;784;-68
2023/03/11 14:29:16;;;;;;;;;;;17.70;60.10;;;;;;5036346;28;958;-69
2023/03/11 14:31:42;;;;;;;;;;;17.70;60.10;;;;;;5068031;28;875;-69
2023/03/11 14:34:18;;;;;;;;;;;17.70;60.20;;;;;;5021664;28;1377;-69
2023/03/11 14:36:43;;;;;;;;;;;17.70;60.20;;;;;;5038334;28;1005;-70